createdAt,value
2022-12-18T00:01:06.750Z,16.35
2022-12-18T00:03:36.963Z,16.58
2022-12-18T00:06:03.752Z,16.23
2022-12-18T00:08:30.215Z,17.25
2022-12-18T00:10:59.514Z,17.15
2022-12-18T00:13:28.079Z,16.17
2022-12-18T00:15:54.607Z,17.63
2022-12-18T00:18:23.291Z,16.45
2022-12-18T00:20:49.619Z,17.52
2022-12-18T00:23:16.043Z,17.48
2022-12-18T00:25:42.522Z,16.23
2022-12-18T00:28:08.912Z,17.42
2022-12-18T00:30:35.284Z,18.35
2022-12-18T00:33:01.637Z,15.70
2022-12-18T00:35:28.005Z,17.70
2022-12-18T00:37:54.377Z,17.15
2022-12-18T00:40:20.801Z,18.00
2022-12-18T00:42:56.362Z,16.27
2022-12-18T00:45:24.026Z,16.15
2022-12-18T00:47:50.567Z,16.58
2022-12-18T00:50:16.996Z,17.75
2022-12-18T00:52:43.592Z,17.80
2022-12-18T00:55:10.270Z,16.00
2022-12-18T00:57:36.739Z,17.63
2022-12-18T01:00:04.939Z,16.88
2022-12-18T01:02:31.359Z,16.23
2022-12-18T01:04:57.831Z,17.73
2022-12-18T01:07:24.179Z,16.65
2022-12-18T01:09:50.693Z,17.08
2022-12-18T01:12:17.062Z,17.58
2022-12-18T01:14:43.449Z,18.95
2022-12-18T01:17:09.827Z,19.00
2022-12-18T01:19:36.213Z,18.85
2022-12-18T01:22:04.216Z,18.00
2022-12-18T01:24:30.582Z,18.25
2022-12-18T01:26:58.173Z,19.05
2022-12-18T01:29:24.581Z,19.20
2022-12-18T01:31:51.086Z,19.83
2022-12-18T01:34:17.527Z,18.30
2022-12-18T01:36:43.879Z,18.00
2022-12-18T01:39:14.123Z,19.67
2022-12-18T01:42:00.525Z,17.35
2022-12-18T01:44:45.371Z,19.35
2022-12-18T01:47:15.418Z,18.92
2022-12-18T01:49:42.803Z,17.88
2022-12-18T01:52:09.257Z,17.80
2022-12-18T01:54:35.644Z,17.60
2022-12-18T01:57:02.620Z,16.90
2022-12-18T01:59:30.517Z,17.45
2022-12-18T02:02:00.394Z,17.10
2022-12-18T02:04:28.398Z,17.55
2022-12-18T02:07:02.425Z,18.13
2022-12-18T02:09:33.916Z,16.00
2022-12-18T02:12:04.455Z,17.75
2022-12-18T02:14:38.597Z,17.08
2022-12-18T02:19:48.170Z,18.10
2022-12-18T02:22:25.817Z,17.00
2022-12-18T02:25:15.546Z,18.48
2022-12-18T02:27:42.514Z,17.75
2022-12-18T02:30:09.468Z,18.02
2022-12-18T02:32:43.037Z,18.60
2022-12-18T02:35:12.963Z,17.83
2022-12-18T02:37:40.269Z,17.88
2022-12-18T02:40:08.185Z,17.60
2022-12-18T02:42:36.659Z,18.35
2022-12-18T02:45:06.004Z,19.33
2022-12-18T02:47:34.821Z,18.13
2022-12-18T02:50:01.491Z,17.60
2022-12-18T02:52:46.402Z,15.98
2022-12-18T02:55:29.436Z,16.83
2022-12-18T02:58:17.048Z,16.25
2022-12-18T03:00:54.907Z,16.38
2022-12-18T03:03:31.136Z,16.90
2022-12-18T03:06:01.016Z,17.70
2022-12-18T03:08:29.805Z,16.75
2022-12-18T03:11:06.427Z,17.67
2022-12-18T03:13:40.185Z,18.15
2022-12-18T03:16:09.264Z,16.85
2022-12-18T03:18:41.543Z,16.52
2022-12-18T03:21:08.967Z,17.83
2022-12-18T03:23:48.574Z,19.27
2022-12-18T03:26:20.046Z,16.65
2022-12-18T03:28:53.526Z,17.83
2022-12-18T03:31:22.795Z,18.65
2022-12-18T03:33:59.707Z,17.83
2022-12-18T03:36:35.458Z,13.70
2022-12-18T03:39:03.061Z,18.55
2022-12-18T03:41:34.587Z,17.45
2022-12-18T03:44:29.682Z,17.48
2022-12-18T03:47:03.100Z,17.52
2022-12-18T03:49:48.398Z,17.88
2022-12-18T03:52:30.226Z,17.75
2022-12-18T03:54:58.343Z,17.88
2022-12-18T03:57:26.748Z,18.20
2022-12-18T04:00:00.554Z,16.95
2022-12-18T04:02:30.899Z,17.52
2022-12-18T04:05:01.668Z,18.17
2022-12-18T04:07:28.484Z,18.65
2022-12-18T04:09:59.477Z,18.15
2022-12-18T04:12:29.548Z,18.52
2022-12-18T04:14:56.670Z,18.38
2022-12-18T04:17:23.539Z,16.33
2022-12-18T04:19:50.310Z,18.10
2022-12-18T04:22:17.225Z,16.98
2022-12-18T04:24:47.558Z,15.68
2022-12-18T04:27:30.315Z,15.70
2022-12-18T04:29:59.063Z,17.55
2022-12-18T04:32:25.492Z,16.65
2022-12-18T04:34:51.879Z,17.90
2022-12-18T04:37:18.661Z,17.48
2022-12-18T04:39:45.381Z,17.38
2022-12-18T04:42:20.162Z,16.75
2022-12-18T04:44:46.508Z,16.23
2022-12-18T04:47:12.883Z,16.13
2022-12-18T04:49:39.232Z,16.27
2022-12-18T04:52:08.853Z,17.17
2022-12-18T04:54:35.280Z,15.45
2022-12-18T04:57:01.644Z,16.67
2022-12-18T04:59:28.046Z,16.58
2022-12-18T05:01:54.514Z,15.98
2022-12-18T05:04:20.991Z,17.38
2022-12-18T05:06:47.380Z,16.63
2022-12-18T05:09:14.603Z,15.68
2022-12-18T05:11:41.073Z,15.68
2022-12-18T05:14:07.541Z,17.05
2022-12-18T05:16:34.002Z,18.08
2022-12-18T05:19:00.467Z,17.77
2022-12-18T05:21:26.925Z,18.35
2022-12-18T05:23:53.262Z,17.83
2022-12-18T05:26:19.638Z,18.90
2022-12-18T05:28:46.872Z,18.75
2022-12-18T05:31:13.873Z,18.75
2022-12-18T05:33:40.621Z,17.13
2022-12-18T05:36:08.425Z,17.83
2022-12-18T05:38:36.122Z,17.92
2022-12-18T05:41:02.795Z,17.00
2022-12-18T05:43:29.706Z,18.75
2022-12-18T05:45:57.728Z,18.10
2022-12-18T05:48:24.424Z,17.92
2022-12-18T05:50:51.446Z,17.33
2022-12-18T05:53:18.886Z,18.73
2022-12-18T05:55:45.399Z,18.05
2022-12-18T05:58:12.472Z,17.25
2022-12-18T06:00:42.836Z,16.80
2022-12-18T06:03:10.689Z,18.70
2022-12-18T06:05:41.528Z,19.23
2022-12-18T06:08:07.938Z,20.92
2022-12-18T06:10:34.340Z,20.17
2022-12-18T06:13:00.883Z,21.55
2022-12-18T06:15:27.299Z,20.80
2022-12-18T06:17:53.667Z,21.13
2022-12-18T06:20:20.060Z,18.83
2022-12-18T06:22:46.512Z,18.35
2022-12-18T06:25:12.990Z,18.92
2022-12-18T06:27:39.663Z,17.50
2022-12-18T06:30:06.934Z,19.05
2022-12-18T06:32:33.402Z,16.45
2022-12-18T06:34:59.894Z,17.20
2022-12-18T06:37:27.081Z,16.73
2022-12-18T06:39:54.492Z,16.73
2022-12-18T06:42:20.858Z,19.17
2022-12-18T06:44:48.401Z,20.25
2022-12-18T06:47:14.813Z,19.52
2022-12-18T06:49:41.271Z,19.42
2022-12-18T06:52:07.656Z,18.45
2022-12-18T06:54:34.017Z,16.92
2022-12-18T06:57:00.384Z,19.45
2022-12-18T06:59:26.717Z,19.85
2022-12-18T07:01:54.636Z,18.25
2022-12-18T07:04:21.106Z,18.65
2022-12-18T07:06:47.644Z,18.80
2022-12-18T07:09:14.023Z,18.02
2022-12-18T07:11:40.361Z,18.85
2022-12-18T07:14:06.712Z,18.55
2022-12-18T07:16:33.125Z,19.10
2022-12-18T07:18:59.538Z,18.10
2022-12-18T07:21:26.298Z,17.48
2022-12-18T07:23:52.921Z,18.52
2022-12-18T07:26:20.138Z,17.58
2022-12-18T07:28:46.561Z,18.77
2022-12-18T07:31:21.523Z,18.25
2022-12-18T07:33:48.636Z,17.95
2022-12-18T07:36:15.396Z,18.92
2022-12-18T07:38:41.938Z,17.67
2022-12-18T07:41:09.597Z,18.73
2022-12-18T07:43:36.871Z,16.83
2022-12-18T07:46:03.882Z,18.10
2022-12-18T07:48:30.338Z,18.85
2022-12-18T07:51:00.307Z,17.83
2022-12-18T07:53:27.192Z,16.88
2022-12-18T07:56:25.563Z,16.00
2022-12-18T07:58:45.349Z,16.55
2022-12-18T08:01:12.978Z,18.23
2022-12-18T08:03:41.242Z,16.08
2022-12-18T08:06:09.885Z,24.73
2022-12-18T08:08:36.665Z,18.40
2022-12-18T08:11:03.350Z,18.75
2022-12-18T08:13:29.761Z,17.80
2022-12-18T08:16:00.147Z,17.58
2022-12-18T08:18:26.834Z,17.92
2022-12-18T08:20:53.363Z,18.80
2022-12-18T08:23:19.791Z,20.02
2022-12-18T08:25:46.199Z,17.35
2022-12-18T08:28:12.606Z,18.55
2022-12-18T08:30:38.980Z,18.58
2022-12-18T08:33:05.394Z,17.42
2022-12-18T08:35:38.822Z,18.33
2022-12-18T08:38:07.511Z,17.25
2022-12-18T08:40:34.117Z,17.63
2022-12-18T08:43:18.912Z,18.10
2022-12-18T08:45:45.313Z,16.83
2022-12-18T08:48:11.708Z,18.60
2022-12-18T08:50:38.073Z,19.98
2022-12-18T08:53:04.456Z,18.42
2022-12-18T08:55:30.826Z,18.90
2022-12-18T08:57:57.192Z,19.27
2022-12-18T09:00:23.697Z,20.83
2022-12-18T09:02:50.305Z,21.92
2022-12-18T09:05:16.912Z,21.67
2022-12-18T09:07:43.281Z,22.42
2022-12-18T09:10:09.807Z,20.70
2022-12-18T09:12:36.169Z,22.58
2022-12-18T09:15:02.544Z,22.58
2022-12-18T09:17:28.893Z,22.45
2022-12-18T09:19:55.467Z,22.63
2022-12-18T09:22:21.834Z,22.25
2022-12-18T09:24:49.525Z,22.67
2022-12-18T09:27:15.893Z,23.17
2022-12-18T09:29:42.237Z,21.92
2022-12-18T09:32:08.614Z,22.38
2022-12-18T09:34:35.099Z,21.48
2022-12-18T09:37:01.504Z,23.10
2022-12-18T09:39:27.895Z,22.80
2022-12-18T09:41:55.756Z,22.67
2022-12-18T09:44:24.714Z,21.83
2022-12-18T09:47:12.315Z,23.15
2022-12-18T09:49:41.590Z,22.25
2022-12-18T09:52:13.791Z,24.45
2022-12-18T09:54:45.172Z,25.40
2022-12-18T09:57:16.442Z,23.63
2022-12-18T09:59:44.555Z,25.05
2022-12-18T10:02:14.530Z,26.10
2022-12-18T10:04:41.016Z,24.50
2022-12-18T10:07:20.842Z,25.23
2022-12-18T10:09:52.525Z,23.75
2022-12-18T10:12:25.211Z,24.08
2022-12-18T10:14:51.534Z,24.55
2022-12-18T10:17:36.635Z,23.25
2022-12-18T10:20:03.046Z,23.15
2022-12-18T10:22:29.354Z,25.35
2022-12-18T10:25:02.661Z,25.55
2022-12-18T10:27:29.562Z,25.17
2022-12-18T10:29:56.727Z,26.42
2022-12-18T10:32:24.267Z,24.13
2022-12-18T10:34:55.342Z,24.13
2022-12-18T10:37:27.241Z,23.75
2022-12-18T10:40:10.765Z,23.95
2022-12-18T10:42:37.356Z,23.20
2022-12-18T10:45:14.310Z,25.65
2022-12-18T10:47:46.601Z,23.90
2022-12-18T10:50:40.951Z,24.55
2022-12-18T10:53:19.425Z,22.98
2022-12-18T10:55:47.939Z,26.08
2022-12-18T10:58:22.236Z,24.02
2022-12-18T11:01:11.851Z,23.73
2022-12-18T11:03:40.367Z,25.10
2022-12-18T11:06:14.482Z,25.17
2022-12-18T11:08:42.685Z,25.27
2022-12-18T11:11:22.886Z,23.95
2022-12-18T11:13:59.790Z,23.33
2022-12-18T11:16:27.216Z,25.80
2022-12-18T11:18:53.642Z,25.90
2022-12-18T11:21:19.999Z,24.10
2022-12-18T11:23:53.574Z,22.90
2022-12-18T11:26:20.839Z,25.30
2022-12-18T11:28:52.080Z,28.55
2022-12-18T11:31:23.009Z,24.98
2022-12-18T11:36:48.379Z,24.27
2022-12-18T11:39:28.087Z,24.58
2022-12-18T11:42:12.644Z,22.95
2022-12-18T11:44:39.339Z,24.58
2022-12-18T11:47:10.887Z,25.10
2022-12-18T11:49:37.237Z,22.77
2022-12-18T11:52:22.020Z,24.10
2022-12-18T11:54:51.526Z,23.58
2022-12-18T11:57:31.672Z,23.98
2022-12-18T12:00:10.356Z,24.23
2022-12-18T12:03:01.020Z,24.02
2022-12-18T12:05:42.761Z,25.25
2022-12-18T12:08:16.318Z,23.30
2022-12-18T12:10:48.268Z,23.58
2022-12-18T12:13:42.324Z,24.83
2022-12-18T12:16:13.102Z,23.40
2022-12-18T12:18:51.038Z,27.17
2022-12-18T12:21:38.138Z,24.63
2022-12-18T12:24:10.661Z,24.33
2022-12-18T12:26:44.648Z,22.80
2022-12-18T12:29:21.422Z,25.30
2022-12-18T12:31:58.413Z,24.25
2022-12-18T12:34:24.797Z,24.90
2022-12-18T12:36:55.878Z,24.05
2022-12-18T12:39:25.923Z,21.92
2022-12-18T12:42:11.206Z,23.55
2022-12-18T12:44:45.351Z,21.95
2022-12-18T12:47:34.696Z,22.73
2022-12-18T12:50:02.758Z,22.73
2022-12-18T12:52:30.958Z,23.98
2022-12-18T12:54:57.676Z,24.52
2022-12-18T12:57:44.435Z,23.95
2022-12-18T13:00:13.750Z,21.65
2022-12-18T13:02:48.410Z,24.13
2022-12-18T13:05:22.560Z,22.90
2022-12-18T13:07:51.959Z,26.37
2022-12-18T13:10:20.646Z,36.58
2022-12-18T13:12:59.259Z,31.58
2022-12-18T13:15:44.796Z,28.38
2022-12-18T13:18:12.697Z,23.98
2022-12-18T13:20:39.413Z,22.40
2022-12-18T13:23:24.510Z,23.48
2022-12-18T13:25:52.365Z,23.85
2022-12-18T13:28:42.108Z,22.33
2022-12-18T13:31:08.635Z,22.10
2022-12-18T13:34:02.054Z,22.55
2022-12-18T13:36:30.935Z,22.87
2022-12-18T13:39:12.451Z,23.20
2022-12-18T13:41:38.890Z,23.02
2022-12-18T13:44:25.085Z,23.10
2022-12-18T13:46:52.393Z,22.80
2022-12-18T13:49:23.941Z,24.10
2022-12-18T13:51:51.641Z,23.63
2022-12-18T13:54:29.103Z,24.38
2022-12-18T13:56:55.466Z,23.17
2022-12-18T13:59:26.115Z,23.35
2022-12-18T14:01:56.748Z,22.73
2022-12-18T14:04:23.265Z,29.00
2022-12-18T14:06:50.964Z,29.63
2022-12-18T14:09:23.993Z,23.27
2022-12-18T14:11:50.778Z,23.20
2022-12-18T14:14:18.777Z,24.48
2022-12-18T14:16:46.723Z,22.10
2022-12-18T14:19:17.869Z,22.27
2022-12-18T14:21:51.067Z,22.05
2022-12-18T14:24:21.945Z,24.40
2022-12-18T14:26:49.628Z,23.17
2022-12-18T14:29:30.347Z,23.23
2022-12-18T14:32:18.719Z,46.50
2022-12-18T14:34:52.646Z,24.33
2022-12-18T14:37:22.208Z,29.55
2022-12-18T14:39:55.912Z,36.25
2022-12-18T14:42:22.405Z,40.17
2022-12-18T14:45:12.853Z,29.08
2022-12-18T14:47:35.256Z,22.88
2022-12-18T14:50:01.926Z,24.50
2022-12-18T14:52:29.381Z,23.73
2022-12-18T14:54:55.866Z,23.13
2022-12-18T14:57:24.226Z,23.38
2022-12-18T14:59:51.238Z,23.65
2022-12-18T15:02:28.261Z,23.63
2022-12-18T15:05:07.244Z,23.20
2022-12-18T15:07:46.783Z,22.20
2022-12-18T15:10:16.326Z,22.70
2022-12-18T15:12:57.981Z,23.30
2022-12-18T15:15:54.812Z,23.02
2022-12-18T15:18:41.496Z,23.02
2022-12-18T15:21:09.544Z,23.58
2022-12-18T15:23:45.172Z,22.40
2022-12-18T15:26:12.918Z,23.02
2022-12-18T15:28:45.385Z,22.65
2022-12-18T15:31:15.875Z,22.88
2022-12-18T15:33:53.756Z,23.25
2022-12-18T15:36:26.868Z,23.08
2022-12-18T15:38:54.532Z,27.40
2022-12-18T15:41:24.926Z,25.27
2022-12-18T15:43:52.178Z,23.52
2022-12-18T15:46:18.638Z,23.13
2022-12-18T15:48:46.073Z,23.85
2022-12-18T15:51:32.754Z,25.38
2022-12-18T15:54:07.250Z,23.13
2022-12-18T15:56:52.475Z,23.33
2022-12-18T15:59:20.242Z,24.30
2022-12-18T16:01:51.576Z,30.73
2022-12-18T16:04:21.220Z,24.00
2022-12-18T16:09:34.647Z,23.20
2022-12-18T16:12:02.281Z,23.08
2022-12-18T16:14:31.821Z,23.48
2022-12-18T16:16:59.881Z,23.27
2022-12-18T16:19:26.518Z,22.75
2022-12-18T16:21:53.909Z,24.23
2022-12-18T16:24:22.845Z,24.00
2022-12-18T16:26:49.834Z,24.35
2022-12-18T16:29:16.309Z,25.60
2022-12-18T16:31:43.200Z,26.58
2022-12-18T16:34:12.820Z,23.92
2022-12-18T16:36:39.237Z,23.77
2022-12-18T16:39:05.719Z,23.77
2022-12-18T16:41:32.893Z,21.33
2022-12-18T16:43:59.943Z,23.55
2022-12-18T16:46:26.479Z,22.27
2022-12-18T16:48:52.901Z,25.40
2022-12-18T16:51:19.271Z,24.30
2022-12-18T16:53:45.738Z,25.67
2022-12-18T16:56:12.156Z,27.42
2022-12-18T16:58:38.591Z,24.92
2022-12-18T17:01:10.219Z,23.25
2022-12-18T17:03:37.043Z,23.50
2022-12-18T17:06:04.424Z,23.15
2022-12-18T17:08:31.057Z,24.20
2022-12-18T17:11:03.356Z,23.58
2022-12-18T17:13:29.777Z,23.92
2022-12-18T17:15:57.874Z,24.40
2022-12-18T17:18:24.375Z,24.23
2022-12-18T17:20:50.746Z,22.73
2022-12-18T17:23:17.196Z,25.17
2022-12-18T17:25:43.691Z,24.15
2022-12-18T17:28:12.920Z,24.58
2022-12-18T17:30:39.348Z,22.98
2022-12-18T17:33:06.567Z,25.73
2022-12-18T17:35:33.002Z,23.70
2022-12-18T17:37:59.525Z,23.35
2022-12-18T17:40:26.486Z,24.27
2022-12-18T17:42:53.492Z,24.20
2022-12-18T17:45:20.591Z,24.77
2022-12-18T17:47:47.014Z,22.45
2022-12-18T17:50:13.493Z,23.65
2022-12-18T17:52:40.159Z,22.65
2022-12-18T17:55:07.011Z,23.15
2022-12-18T17:57:33.652Z,23.45
2022-12-18T18:00:00.307Z,26.30
2022-12-18T18:02:26.990Z,24.67
2022-12-18T18:04:53.731Z,25.23
2022-12-18T18:07:20.314Z,25.67
2022-12-18T18:09:48.502Z,24.10
2022-12-18T18:12:33.786Z,25.35
2022-12-18T18:15:00.605Z,23.60
2022-12-18T18:17:27.471Z,23.70
2022-12-18T18:19:54.052Z,23.65
2022-12-18T18:22:22.113Z,25.85
2022-12-18T18:24:49.763Z,24.20
2022-12-18T18:27:16.349Z,24.83
2022-12-18T18:29:43.448Z,28.67
2022-12-18T18:32:10.267Z,29.98
2022-12-18T18:34:36.982Z,25.75
2022-12-18T18:37:03.519Z,24.02
2022-12-18T18:39:30.035Z,24.05
2022-12-18T18:41:56.614Z,24.65
2022-12-18T18:44:25.655Z,24.77
2022-12-18T18:46:57.092Z,25.00
2022-12-18T18:49:26.874Z,25.25
2022-12-18T18:51:54.083Z,23.38
2022-12-18T18:54:21.255Z,24.38
2022-12-18T18:59:37.257Z,24.75
2022-12-18T19:02:04.769Z,26.83
2022-12-18T19:04:32.252Z,26.15
2022-12-18T19:06:58.853Z,26.67
2022-12-18T19:09:25.977Z,27.27
2022-12-18T19:12:12.037Z,31.85
2022-12-18T19:14:38.510Z,23.80
2022-12-18T19:17:04.960Z,25.05
2022-12-18T19:19:32.102Z,24.63
2022-12-18T19:21:58.576Z,38.08
2022-12-18T19:24:24.984Z,35.50
2022-12-18T19:26:52.177Z,27.98
2022-12-18T19:29:20.547Z,26.50
2022-12-18T19:31:46.987Z,26.13
2022-12-18T19:34:13.470Z,24.50
2022-12-18T19:36:40.503Z,26.13
2022-12-18T19:39:08.888Z,24.48
2022-12-18T19:41:35.446Z,24.73
2022-12-18T19:44:07.957Z,25.67
2022-12-18T19:46:35.240Z,25.40
2022-12-18T19:49:02.262Z,26.33
2022-12-18T19:51:29.850Z,27.30
2022-12-18T19:53:59.388Z,28.40
2022-12-18T19:56:28.873Z,27.58
2022-12-18T19:58:55.417Z,25.65
2022-12-18T20:01:23.030Z,26.83
2022-12-18T20:03:52.308Z,27.40
2022-12-18T20:06:31.628Z,26.42
2022-12-18T20:09:00.481Z,27.02
2022-12-18T20:11:28.162Z,27.42
2022-12-18T20:13:54.647Z,28.33
2022-12-18T20:16:21.128Z,31.30
2022-12-18T20:18:47.977Z,28.98
2022-12-18T20:21:14.642Z,31.85
2022-12-18T20:23:41.818Z,29.17
2022-12-18T20:26:08.810Z,42.92
2022-12-18T20:28:35.521Z,36.88
2022-12-18T20:31:03.537Z,31.20
2022-12-18T20:33:30.635Z,27.85
2022-12-18T20:36:05.945Z,27.88
2022-12-18T20:38:33.518Z,26.60
2022-12-18T20:41:02.468Z,36.83
2022-12-18T20:43:29.415Z,36.13
2022-12-18T20:46:03.260Z,42.78
2022-12-18T20:48:29.765Z,36.38
2022-12-18T20:51:15.731Z,31.75
2022-12-18T20:53:42.799Z,29.33
2022-12-18T20:56:20.166Z,28.25
2022-12-18T20:58:48.625Z,27.73
2022-12-18T21:01:17.235Z,26.35
2022-12-18T21:03:45.856Z,28.05
2022-12-18T21:06:13.036Z,27.05
2022-12-18T21:08:39.693Z,28.30
2022-12-18T21:11:35.645Z,25.80
2022-12-18T21:14:02.849Z,27.05
2022-12-18T21:16:29.488Z,27.13
2022-12-18T21:18:55.925Z,27.70
2022-12-18T21:21:26.539Z,25.27
2022-12-18T21:23:53.550Z,26.23
2022-12-18T21:26:21.512Z,27.08
2022-12-18T21:28:48.667Z,27.98
2022-12-18T21:31:15.342Z,27.35
2022-12-18T21:33:41.986Z,27.88
2022-12-18T21:36:08.709Z,27.25
2022-12-18T21:38:35.984Z,27.00
2022-12-18T21:41:07.649Z,25.63
2022-12-18T21:43:52.780Z,28.35
2022-12-18T21:46:19.229Z,26.98
2022-12-18T21:48:45.682Z,29.33
2022-12-18T21:51:12.087Z,26.75
2022-12-18T21:53:38.524Z,29.33
2022-12-18T21:56:05.004Z,28.60
2022-12-18T21:58:31.994Z,27.73
2022-12-18T22:00:58.447Z,28.05
2022-12-18T22:03:25.046Z,27.63
2022-12-18T22:06:07.662Z,28.45
2022-12-18T22:11:02.486Z,25.92
2022-12-18T22:13:28.933Z,27.35
2022-12-18T22:15:55.438Z,28.30
2022-12-18T22:18:22.753Z,27.05
2022-12-18T22:20:49.177Z,27.67
2022-12-18T22:23:15.578Z,26.27
2022-12-18T22:25:42.011Z,27.02
2022-12-18T22:28:27.055Z,27.85
2022-12-18T22:30:59.672Z,27.02
2022-12-18T22:33:27.319Z,30.67
2022-12-18T22:35:53.693Z,31.05
2022-12-18T22:38:20.190Z,30.23
2022-12-18T22:40:46.659Z,30.95
2022-12-18T22:43:13.202Z,30.73
2022-12-18T22:45:39.749Z,31.42
2022-12-18T22:48:06.304Z,30.50
2022-12-18T22:50:33.780Z,31.10
2022-12-18T22:53:00.280Z,28.75
2022-12-18T22:55:26.766Z,29.42
2022-12-18T22:57:53.256Z,29.15
2022-12-18T23:00:24.629Z,28.67
2022-12-18T23:02:57.632Z,28.55
2022-12-18T23:05:26.556Z,30.40
2022-12-18T23:07:52.952Z,30.08
2022-12-18T23:10:19.350Z,28.80
2022-12-18T23:12:45.803Z,29.55
2022-12-18T23:15:12.251Z,29.67
2022-12-18T23:17:39.710Z,29.38
2022-12-18T23:20:06.311Z,28.30
2022-12-18T23:22:32.707Z,28.10
2022-12-18T23:24:59.116Z,29.67
2022-12-18T23:27:25.480Z,30.13
2022-12-18T23:29:51.853Z,28.25
2022-12-18T23:32:19.538Z,29.10
2022-12-18T23:34:45.927Z,27.58
2022-12-18T23:37:12.365Z,28.40
2022-12-18T23:39:38.775Z,29.50
2022-12-18T23:42:05.232Z,28.90
2022-12-18T23:44:31.709Z,27.33
2022-12-18T23:46:58.113Z,28.58
2022-12-18T23:49:24.653Z,28.73
2022-12-18T23:51:53.417Z,31.08
2022-12-18T23:54:22.362Z,30.42
2022-12-18T23:56:59.272Z,28.63
2022-12-18T23:59:25.732Z,28.23
